Time;durP1;ratioP1;P1;durP2;ratioP2;P2;SDS_P1;SDS_P2;PMS_P1;PMS_P2;Temp;Humidity;BMP_temperature;BMP_pressure;BME280_temperature;BME280_humidity;BME280_pressure;Samples;Min_cycle;Max_cycle;Signal;HPM_P1;HPM_P2
2023/04/11 00:00:18;;;;;;;20.70;6.10;;;;;;;8.20;100.00;100719.22;6235640;23;19996;-88
2023/04/11 00:02:45;;;;;;;17.15;5.47;;;;;;;8.21;100.00;100725.38;6209664;23;20151;-89
2023/04/11 00:05:11;;;;;;;23.70;5.90;;;;;;;8.18;100.00;100726.34;6208716;23;20004;-89
2023/04/11 00:07:36;;;;;;;22.48;5.93;;;;;;;8.13;100.00;100709.78;6235991;23;20014;-87
2023/04/11 00:10:02;;;;;;;20.77;5.32;;;;;;;8.12;100.00;100715.16;6236651;23;20000;-87
2023/04/11 00:12:27;;;;;;;25.67;6.00;;;;;;;8.13;100.00;100724.84;6236628;23;20063;-88
2023/04/11 00:14:52;;;;;;;18.58;5.97;;;;;;;8.13;100.00;100733.66;6240335;23;20058;-88
2023/04/11 00:17:19;;;;;;;22.05;6.85;;;;;;;8.14;100.00;100730.06;6243808;23;20003;-89
2023/04/11 00:19:48;;;;;;;23.13;6.65;;;;;;;8.12;100.00;100734.59;6254435;23;20852;-86
2023/04/11 00:22:17;;;;;;;21.30;6.28;;;;;;;8.09;100.00;100740.00;6255014;23;20018;-88
2023/04/11 00:24:43;;;;;;;24.00;6.85;;;;;;;8.02;100.00;100730.56;6257310;23;20019;-87
2023/04/11 00:27:08;;;;;;;24.55;6.88;;;;;;;7.94;100.00;100719.44;6231886;23;20088;-88
2023/04/11 00:29:35;;;;;;;23.38;6.78;;;;;;;7.89;100.00;100722.28;6254263;23;20004;-88
2023/04/11 00:32:01;;;;;;;19.58;6.40;;;;;;;7.85;100.00;100727.78;6241391;23;20452;-89
2023/04/11 00:34:27;;;;;;;22.77;6.60;;;;;;;7.81;100.00;100728.81;6244283;23;20087;-88
2023/04/11 00:36:52;;;;;;;23.60;6.78;;;;;;;7.76;100.00;100728.16;6244510;23;20004;-89
2023/04/11 00:39:19;;;;;;;22.73;7.05;;;;;;;7.66;100.00;100732.97;6241682;23;19996;-88
2023/04/11 00:41:45;;;;;;;29.27;7.72;;;;;;;7.64;100.00;100738.31;6240822;23;20077;-88
2023/04/11 00:44:10;;;;;;;22.15;6.72;;;;;;;7.58;100.00;100732.44;6240835;23;20000;-87
2023/04/11 00:46:36;;;;;;;23.35;7.95;;;;;;;7.55;100.00;100735.19;6241109;23;20004;-88
2023/04/11 00:49:02;;;;;;;23.60;7.80;;;;;;;7.49;100.00;100739.81;6242730;22;20020;-87
2023/04/11 00:51:27;;;;;;;24.45;8.02;;;;;;;7.43;100.00;100742.69;6251159;23;20030;-84
2023/04/11 00:53:53;;;;;;;26.38;7.35;;;;;;;7.45;100.00;100743.50;6246229;23;20417;-88
2023/04/11 00:56:18;;;;;;;23.63;7.80;;;;;;;7.45;100.00;100742.66;6238544;23;20094;-88
2023/04/11 00:58:44;;;;;;;25.88;7.20;;;;;;;7.47;100.00;100736.34;6237476;23;20093;-86
2023/04/11 01:01:09;;;;;;;29.05;7.15;;;;;;;7.57;100.00;100738.66;6238679;23;20468;-88
2023/04/11 01:03:38;;;;;;;25.02;7.30;;;;;;;7.63;100.00;100743.69;6237963;23;20641;-88
2023/04/11 01:06:10;;;;;;;34.65;8.57;;;;;;;7.68;100.00;100749.66;6236339;23;20355;-87
2023/04/11 01:08:36;;;;;;;24.40;7.55;;;;;;;7.68;100.00;100739.91;6211274;23;20338;-88
2023/04/11 01:11:02;;;;;;;28.67;7.93;;;;;;;7.65;100.00;100729.47;6238934;23;20437;-88
2023/04/11 01:13:30;;;;;;;26.02;7.55;;;;;;;7.71;100.00;100742.44;6236907;23;20083;-89
2023/04/11 01:15:55;;;;;;;31.08;7.72;;;;;;;7.69;100.00;100738.13;6236443;23;20004;-89
2023/04/11 01:18:21;;;;;;;29.13;7.72;;;;;;;7.63;100.00;100727.78;6237777;23;20065;-87
2023/04/11 01:20:46;;;;;;;25.92;7.60;;;;;;;7.61;100.00;100727.00;6212942;23;20023;-87
2023/04/11 01:23:13;;;;;;;27.55;7.30;;;;;;;7.58;100.00;100733.28;6238353;23;20007;-88
2023/04/11 01:25:39;;;;;;;29.10;8.60;;;;;;;7.56;100.00;100726.31;6238588;23;20115;-88
2023/04/11 01:28:05;;;;;;;31.25;8.30;;;;;;;7.42;100.00;100705.69;6242109;23;20044;-87
2023/04/11 01:30:30;;;;;;;28.23;8.65;;;;;;;7.45;100.00;100724.97;6242230;23;20004;-88
2023/04/11 01:32:55;;;;;;;27.42;7.90;;;;;;;7.37;100.00;100727.06;6243377;23;20014;-88
2023/04/11 01:35:21;;;;;;;27.77;7.80;;;;;;;7.32;100.00;100738.75;6242674;23;20008;-86
2023/04/11 01:37:46;;;;;;;28.65;7.65;;;;;;;7.27;100.00;100740.69;6243604;23;20027;-86
2023/04/11 01:40:15;;;;;;;28.05;7.90;;;;;;;7.18;100.00;100729.53;6242579;23;20000;-87
2023/04/11 01:42:41;;;;;;;25.73;8.02;;;;;;;7.20;100.00;100755.97;6243517;23;20008;-85
2023/04/11 01:45:08;;;;;;;31.10;8.30;;;;;;;7.15;100.00;100760.59;6242651;23;20012;-86
2023/04/11 01:47:33;;;;;;;30.58;7.97;;;;;;;7.12;100.00;100758.91;6241900;22;20008;-87
2023/04/11 01:49:59;;;;;;;27.55;7.88;;;;;;;7.15;100.00;100768.53;6242438;23;20008;-88
2023/04/11 01:52:25;;;;;;;29.45;8.25;;;;;;;7.09;100.00;100756.38;6240317;23;20004;-87
2023/04/11 01:54:51;;;;;;;27.83;7.63;;;;;;;7.15;100.00;100763.22;6240585;23;20211;-87
2023/04/11 01:57:16;;;;;;;27.40;8.10;;;;;;;7.12;100.00;100758.91;6240711;23;20012;-87
2023/04/11 01:59:42;;;;;;;30.67;8.07;;;;;;;7.09;100.00;100769.59;6240473;23;20450;-87
2023/04/11 02:02:07;;;;;;;25.20;7.75;;;;;;;7.06;100.00;100767.06;6243377;23;20015;-88
2023/04/11 02:04:32;;;;;;;31.55;7.43;;;;;;;7.00;100.00;100767.31;6248861;23;20027;-87
2023/04/11 02:06:57;;;;;;;27.80;7.68;;;;;;;6.96;100.00;100769.19;6247985;23;20004;-86
2023/04/11 02:09:23;;;;;;;26.90;7.80;;;;;;;6.87;100.00;100758.97;6249008;23;20086;-89
2023/04/11 02:11:48;;;;;;;30.40;8.25;;;;;;;6.88;100.00;100771.25;6220862;23;20694;-88
2023/04/11 02:14:13;;;;;;;29.35;7.30;;;;;;;6.88;100.00;100776.56;6249655;23;20003;-88
2023/04/11 02:16:50;;;;;;;23.30;7.97;;;;;;;6.96;100.00;100785.06;6245665;23;20008;-88
2023/04/11 02:19:15;;;;;;;31.90;8.05;;;;;;;6.99;100.00;100779.69;6247318;23;20007;-87
2023/04/11 02:21:41;;;;;;;29.95;8.10;;;;;;;7.11;100.00;100793.38;6217003;23;20008;-87
2023/04/11 02:24:06;;;;;;;27.80;8.10;;;;;;;7.19;100.00;100786.00;6245510;23;20028;-87
2023/04/11 02:26:31;;;;;;;28.25;8.80;;;;;;;7.19;100.00;100781.59;6243846;23;20103;-86
2023/04/11 02:28:56;;;;;;;29.85;8.43;;;;;;;7.28;100.00;100788.31;6244249;23;20452;-86
2023/04/11 02:31:22;;;;;;;30.63;8.40;;;;;;;7.28;100.00;100790.97;6243237;23;20011;-87
2023/04/11 02:33:47;;;;;;;26.88;8.18;;;;;;;7.35;100.00;100789.78;6240681;23;20389;-88
2023/04/11 02:36:13;;;;;;;26.55;8.15;;;;;;;7.37;100.00;100787.97;6238757;23;20004;-88
2023/04/11 02:38:38;;;;;;;27.15;7.97;;;;;;;7.44;100.00;100801.81;6240039;23;20418;-88
2023/04/11 02:41:04;;;;;;;28.98;8.25;;;;;;;7.44;100.00;100799.16;6242885;23;20004;-88
2023/04/11 02:43:30;;;;;;;28.15;7.20;;;;;;;7.44;100.00;100797.41;6265623;22;20043;-86
2023/04/11 02:45:55;;;;;;;27.42;7.55;;;;;;;7.43;100.00;100793.00;6261250;23;20010;-87
2023/04/11 02:48:21;;;;;;;25.58;7.88;;;;;;;7.39;100.00;100782.59;6228742;23;20095;-87
2023/04/11 02:50:46;;;;;;;25.10;6.97;;;;;;;7.40;100.00;100790.50;6258219;23;20023;-88
2023/04/11 02:53:12;;;;;;;27.10;7.28;;;;;;;7.41;100.00;100786.06;6258148;23;20014;-86
2023/04/11 02:55:37;;;;;;;24.00;6.57;;;;;;;7.48;100.00;100795.47;6256026;23;20008;-89
2023/04/11 02:58:02;;;;;;;24.17;6.90;;;;;;;7.39;100.00;100767.56;6243685;23;20015;-88
2023/04/11 03:00:28;;;;;;;28.25;6.93;;;;;;;7.45;100.00;100800.91;6243632;23;20008;-86
2023/04/11 03:02:55;;;;;;;27.25;7.45;;;;;;;7.43;100.00;100800.09;6244372;23;20007;-88
2023/04/11 03:05:21;;;;;;;23.00;6.38;;;;;;;7.40;100.00;100795.78;6243425;23;20018;-88
2023/04/11 03:07:46;;;;;;;25.67;6.80;;;;;;;7.40;100.00;100803.72;6244143;23;20003;-88
2023/04/11 03:10:11;;;;;;;20.25;6.40;;;;;;;7.39;100.00;100807.28;6212607;23;19992;-87
2023/04/11 03:12:37;;;;;;;21.85;6.82;;;;;;;7.40;100.00;100805.53;6237880;23;20074;-86
2023/04/11 03:15:02;;;;;;;21.20;6.60;;;;;;;7.33;100.00;100804.88;6239301;23;20004;-88
2023/04/11 03:17:27;;;;;;;21.42;6.53;;;;;;;7.22;100.00;100807.91;6238825;23;20379;-88
2023/04/11 03:19:53;;;;;;;24.38;6.97;;;;;;;7.20;100.00;100815.06;6239154;23;20008;-87
2023/04/11 03:22:19;;;;;;;25.67;6.47;;;;;;;7.23;100.00;100807.03;6239611;23;20076;-89
2023/04/11 03:24:44;;;;;;;24.33;6.47;;;;;;;7.22;100.00;100812.34;6237571;23;20011;-90
2023/04/11 03:27:09;;;;;;;21.17;6.07;;;;;;;7.27;100.00;100815.69;6212100;23;20675;-88
2023/04/11 03:29:35;;;;;;;20.38;5.82;;;;;;;7.23;100.00;100814.06;6235434;23;20004;-88
2023/04/11 03:32:00;;;;;;;15.75;4.93;;;;;;;7.30;100.00;100830.59;6234022;23;20015;-87
2023/04/11 03:34:25;;;;;;;19.00;5.47;;;;;;;7.28;100.00;100835.09;6205757;23;20083;-88
2023/04/11 03:36:51;;;;;;;15.65;5.20;;;;;;;7.27;100.00;100847.44;6208207;23;20007;-89
2023/04/11 03:39:18;;;;;;;22.90;5.18;;;;;;;7.21;100.00;100821.22;6232763;23;20058;-88
2023/04/11 03:41:43;;;;;;;19.65;5.80;;;;;;;7.27;100.00;100831.56;6233997;23;20003;-88
2023/04/11 03:44:08;;;;;;;19.48;6.07;;;;;;;7.26;100.00;100840.44;6208353;23;20448;-87
2023/04/11 03:46:34;;;;;;;16.10;4.97;;;;;;;7.26;100.00;100842.22;6241836;23;20004;-89
2023/04/11 03:48:59;;;;;;;14.75;4.90;;;;;;;7.19;100.00;100836.28;6240912;22;20016;-88
2023/04/11 03:51:25;;;;;;;19.13;5.20;;;;;;;7.24;100.00;100840.50;6244220;23;20091;-88
2023/04/11 03:53:51;;;;;;;19.05;5.80;;;;;;;7.18;100.00;100831.91;6238593;23;20067;-88
2023/04/11 03:56:16;;;;;;;19.20;5.30;;;;;;;7.21;100.00;100842.41;6236872;23;20058;-88
2023/04/11 03:58:42;;;;;;;17.65;5.28;;;;;;;7.17;100.00;100843.44;6238324;23;20392;-88
2023/04/11 04:01:07;;;;;;;21.45;5.63;;;;;;;7.14;100.00;100843.53;6238415;23;20496;-87
2023/04/11 04:03:32;;;;;;;17.65;5.43;;;;;;;7.17;100.00;100852.22;6238007;23;20083;-89
2023/04/11 04:05:57;;;;;;;19.42;6.10;;;;;;;7.19;100.00;100849.53;6236983;23;20445;-88
2023/04/11 04:08:23;;;;;;;19.83;6.10;;;;;;;7.11;100.00;100841.03;6238048;23;20008;-88
2023/04/11 04:10:48;;;;;;;21.88;6.70;;;;;;;7.06;100.00;100842.94;6240068;23;20004;-88
2023/04/11 04:13:13;;;;;;;18.13;6.00;;;;;;;7.03;100.00;100843.94;6241492;23;20004;-88
2023/04/11 04:15:39;;;;;;;24.38;7.00;;;;;;;7.02;100.00;100846.63;6238351;23;20037;-88
2023/04/11 04:18:04;;;;;;;21.08;6.97;;;;;;;6.95;100.00;100848.66;6238327;23;20061;-88
2023/04/11 04:20:30;;;;;;;24.88;7.10;;;;;;;6.93;100.00;100851.34;6211101;23;20082;-88
2023/04/11 04:22:55;;;;;;;24.95;7.25;;;;;;;6.94;100.00;100854.88;6237934;23;20177;-87
2023/04/11 04:25:21;;;;;;;24.85;7.07;;;;;;;6.94;100.00;100857.50;6237001;23;20414;-88
2023/04/11 04:27:46;;;;;;;21.13;6.60;;;;;;;6.93;100.00;100855.75;6238144;23;20008;-87
2023/04/11 04:30:15;;;;;;;23.35;7.80;;;;;;;6.90;100.00;100863.84;6240545;23;20421;-87
2023/04/11 04:32:44;;;;;;;21.55;7.25;;;;;;;6.83;100.00;100871.09;6212427;23;20215;-89
2023/04/11 04:35:10;;;;;;;22.73;6.65;;;;;;;6.77;100.00;100870.44;6237088;23;20046;-90
2023/04/11 04:37:38;;;;;;;24.75;7.13;;;;;;;6.69;100.00;100881.31;6236477;23;20089;-88
2023/04/11 04:40:07;;;;;;;25.67;7.57;;;;;;;6.61;100.00;100883.34;6237434;23;20014;-88
2023/04/11 04:42:33;;;;;;;19.60;6.90;;;;;;;6.53;100.00;100886.25;6237363;23;20015;-88
2023/04/11 04:44:59;;;;;;;19.90;6.70;;;;;;;6.48;100.00;100874.97;6236888;23;20066;-88
2023/04/11 04:47:30;;;;;;;20.67;6.57;;;;;;;6.48;100.00;100894.34;6209714;22;20000;-87
2023/04/11 04:49:56;;;;;;;19.42;6.25;;;;;;;6.46;100.00;100900.59;6237396;23;20068;-88
2023/04/11 04:52:22;;;;;;;22.55;6.63;;;;;;;6.41;100.00;100890.16;6236747;23;20000;-88
2023/04/11 04:54:48;;;;;;;23.17;6.20;;;;;;;6.38;100.00;100898.19;6234848;23;20035;-87
2023/04/11 04:57:13;;;;;;;23.67;6.55;;;;;;;6.39;100.00;100902.53;6243559;23;20027;-88
2023/04/11 04:59:38;;;;;;;20.17;5.25;;;;;;;6.38;100.00;100910.53;6239563;23;20388;-89
2023/04/11 05:02:03;;;;;;;16.27;6.00;;;;;;;6.31;100.00;100922.22;6241012;23;20458;-87
2023/04/11 05:04:32;;;;;;;19.45;5.95;;;;;;;6.22;100.00;100910.16;6239489;23;20008;-87
2023/04/11 05:06:58;;;;;;;19.92;5.65;;;;;;;6.27;100.00;100918.84;6253446;22;20054;-88
2023/04/11 05:09:23;;;;;;;20.10;5.80;;;;;;;6.30;100.00;100921.34;6239736;22;20040;-88
2023/04/11 05:11:49;;;;;;;16.75;5.72;;;;;;;6.22;100.00;100924.25;6266592;22;20008;-87
2023/04/11 05:14:15;;;;;;;20.58;6.20;;;;;;;6.27;100.00;100936.44;6266224;22;20000;-87
2023/04/11 05:16:41;;;;;;;20.10;6.00;;;;;;;6.22;100.00;100926.03;6258850;23;20144;-89
2023/04/11 05:19:06;;;;;;;19.13;5.25;;;;;;;6.20;100.00;100931.38;6257848;23;20000;-88
2023/04/11 05:21:32;;;;;;;19.52;5.43;;;;;;;6.21;100.00;100937.50;6251982;23;20000;-89
2023/04/11 05:23:57;;;;;;;19.10;5.20;;;;;;;6.18;100.00;100925.25;6243217;23;20004;-88
2023/04/11 05:26:22;;;;;;;20.02;6.65;;;;;;;6.15;100.00;100928.00;6243482;23;20007;-86
2023/04/11 05:28:48;;;;;;;17.95;5.63;;;;;;;6.17;100.00;100939.38;6246987;23;20056;-86
2023/04/11 05:31:13;;;;;;;15.10;4.97;;;;;;;6.14;100.00;100941.25;6249044;23;20026;-86
2023/04/11 05:33:40;;;;;;;21.90;5.63;;;;;;;6.20;100.00;100949.88;6247937;23;20004;-88
2023/04/11 05:36:06;;;;;;;17.88;5.40;;;;;;;6.21;100.00;100954.22;6246730;23;20038;-88
2023/04/11 05:38:32;;;;;;;23.80;5.22;;;;;;;6.27;100.00;100954.94;6239985;23;20012;-87
2023/04/11 05:40:58;;;;;;;18.10;5.65;;;;;;;6.27;100.00;100968.16;6239891;23;20004;-85
2023/04/11 05:43:23;;;;;;;19.05;5.38;;;;;;;6.26;100.00;100964.66;6237461;23;20015;-87
2023/04/11 05:45:48;;;;;;;18.85;5.97;;;;;;;6.27;100.00;100968.16;6235570;23;20027;-88
2023/04/11 05:48:14;;;;;;;20.60;5.47;;;;;;;6.25;100.00;100968.22;6210511;23;20115;-87
2023/04/11 05:50:40;;;;;;;18.58;5.75;;;;;;;6.27;100.00;100979.63;6237087;23;20011;-86
2023/04/11 05:53:06;;;;;;;24.20;6.65;;;;;;;6.28;100.00;100980.50;6237119;23;20087;-88
2023/04/11 05:55:31;;;;;;;19.27;5.97;;;;;;;6.31;100.00;100978.63;6236475;23;20444;-88
2023/04/11 05:57:56;;;;;;;26.50;6.70;;;;;;;6.41;100.00;100981.84;6236452;23;20012;-87
2023/04/11 06:00:23;;;;;;;26.25;6.20;;;;;;;6.42;100.00;100968.56;6235299;23;20008;-86
2023/04/11 06:02:50;;;;;;;19.48;7.35;;;;;;;6.59;100.00;100983.03;6236965;23;20109;-86
2023/04/11 06:05:16;;;;;;;23.52;6.93;;;;;;;6.72;100.00;100985.22;6208851;23;20020;-85
2023/04/11 06:07:43;;;;;;;21.30;7.93;;;;;;;6.85;100.00;100990.09;6237706;23;20008;-85
2023/04/11 06:10:09;;;;;;;25.52;6.57;;;;;;;7.02;100.00;100987.75;6236369;23;20004;-86
2023/04/11 06:12:35;;;;;;;23.98;7.35;;;;;;;7.20;100.00;100999.50;6235887;23;20004;-86
2023/04/11 06:15:01;;;;;;;23.75;6.63;;;;;;;7.18;100.00;100998.69;6242206;23;20440;-85
2023/04/11 06:17:26;;;;;;;22.08;6.82;;;;;;;7.18;100.00;100994.25;6246269;23;20004;-85
2023/04/11 06:19:52;;;;;;;23.45;6.97;;;;;;;7.27;100.00;101003.66;6247565;23;20015;-87
2023/04/11 06:22:17;;;;;;;26.27;6.60;;;;;;;7.33;100.00;100995.53;6238227;23;20008;-86
2023/04/11 06:24:44;;;;;;;24.83;6.97;;;;;;;7.39;100.00;100994.44;6232977;23;20023;-86
2023/04/11 06:27:10;;;;;;;21.92;6.63;;;;;;;7.46;100.00;101007.41;6235727;23;20015;-86
2023/04/11 06:29:40;;;;;;;22.67;6.65;;;;;;;7.69;100.00;101009.25;6238148;23;20441;-87
2023/04/11 06:32:06;;;;;;;20.17;6.72;;;;;;;7.82;100.00;100999.06;6238001;23;20079;-87
2023/04/11 06:34:32;;;;;;;20.33;6.57;;;;;;;7.91;100.00;101008.47;6236939;23;20015;-87
2023/04/11 06:36:57;;;;;;;18.33;6.20;;;;;;;8.01;100.00;101012.47;6213777;23;20008;-89
2023/04/11 06:39:22;;;;;;;20.58;6.10;;;;;;;8.04;99.14;101012.38;6237616;23;20733;-88
2023/04/11 06:41:48;;;;;;;16.00;5.85;;;;;;;8.16;100.00;101011.91;6211503;23;20074;-86
2023/04/11 06:44:13;;;;;;;17.02;6.32;;;;;;;8.36;98.85;101023.50;6237351;23;20087;-86
2023/04/11 06:46:39;;;;;;;19.60;6.30;;;;;;;8.42;97.32;101021.53;6235387;23;20004;-88
2023/04/11 06:49:07;;;;;;;19.20;6.05;;;;;;;8.54;96.38;101006.06;6237464;22;20022;-89
2023/04/11 06:51:33;;;;;;;20.63;6.53;;;;;;;8.67;96.50;101024.09;6207239;23;20040;-88
2023/04/11 06:53:59;;;;;;;21.05;6.88;;;;;;;8.88;95.17;101034.75;6235503;23;20028;-87
2023/04/11 06:56:24;;;;;;;19.88;6.25;;;;;;;8.93;94.38;101046.91;6236757;23;20004;-87
2023/04/11 06:58:50;;;;;;;16.17;6.03;;;;;;;9.03;93.49;101028.84;6238367;23;20004;-86
2023/04/11 07:01:15;;;;;;;20.77;6.55;;;;;;;9.18;91.79;101028.16;6233792;23;20083;-88
2023/04/11 07:03:40;;;;;;;18.60;5.57;;;;;;;9.24;90.48;101037.69;6235977;23;20057;-88
2023/04/11 07:06:09;;;;;;;16.92;5.68;;;;;;;9.37;90.80;101041.56;6237234;23;20012;-87
2023/04/11 07:08:34;;;;;;;14.88;5.25;;;;;;;9.25;89.12;101034.09;6238411;23;20052;-88
2023/04/11 07:10:59;;;;;;;16.08;5.28;;;;;;;9.25;89.99;101041.22;6236909;23;20011;-88
2023/04/11 07:13:25;;;;;;;15.02;5.07;;;;;;;9.45;90.18;101052.72;6235769;23;20008;-89
2023/04/11 07:15:51;;;;;;;14.80;5.20;;;;;;;9.58;88.13;101055.72;6236584;23;20008;-89
2023/04/11 07:18:16;;;;;;;22.15;5.63;;;;;;;9.45;86.78;101047.41;6238883;23;20031;-88
2023/04/11 07:20:41;;;;;;;20.92;5.35;;;;;;;9.56;86.67;101040.75;6210666;23;20015;-90
2023/04/11 07:23:07;;;;;;;19.85;6.07;;;;;;;9.57;86.79;101055.75;6235674;23;20019;-88
2023/04/11 07:25:32;;;;;;;14.10;5.68;;;;;;;9.76;85.72;101056.69;6234720;23;20093;-87
2023/04/11 07:27:59;;;;;;;16.58;5.38;;;;;;;10.11;85.11;101067.53;6236127;23;20126;-87
2023/04/11 07:30:25;;;;;;;15.82;4.85;;;;;;;10.13;83.37;101066.53;6254211;22;20010;-88
2023/04/11 07:32:50;;;;;;;15.98;5.07;;;;;;;10.04;82.19;101076.75;6264844;22;19992;-88
2023/04/11 07:35:15;;;;;;;16.85;4.72;;;;;;;9.89;81.32;101073.81;6259590;22;20018;-89
2023/04/11 07:37:41;;;;;;;13.13;4.50;;;;;;;10.00;82.89;101065.38;6263200;22;20012;-89
2023/04/11 07:40:13;;;;;;;17.25;5.40;;;;;;;10.55;81.28;101075.31;6257560;23;20055;-86
2023/04/11 07:42:39;;;;;;;16.13;4.30;;;;;;;10.40;79.36;101072.41;6255563;23;20004;-87
2023/04/11 07:45:05;;;;;;;13.50;5.00;;;;;;;10.40;78.65;101088.38;6251850;23;20031;-88
2023/04/11 07:47:31;;;;;;;13.70;5.07;;;;;;;10.52;78.17;101088.75;6244264;22;20000;-88
2023/04/11 07:49:57;;;;;;;13.38;4.80;;;;;;;10.37;77.92;101079.69;6244127;23;20008;-88
2023/04/11 07:52:23;;;;;;;15.43;5.60;;;;;;;10.27;78.35;101091.69;6246030;23;20035;-89
2023/04/11 07:54:48;;;;;;;13.90;5.35;;;;;;;10.00;77.66;101091.97;6246774;23;20004;-90
2023/04/11 07:57:13;;;;;;;15.70;5.35;;;;;;;10.29;78.51;101077.38;6246810;23;20476;-88
2023/04/11 07:59:39;;;;;;;16.40;5.10;;;;;;;10.65;77.66;101079.25;6217720;23;20058;-88
2023/04/11 08:02:06;;;;;;;16.73;5.05;;;;;;;10.45;74.86;101088.19;6249368;23;20008;-87
2023/04/11 08:04:32;;;;;;;13.32;4.75;;;;;;;10.26;76.08;101092.63;6252090;23;20007;-88
2023/04/11 08:06:57;;;;;;;12.93;4.20;;;;;;;10.33;73.88;101105.56;6224862;23;20008;-87
2023/04/11 08:09:23;;;;;;;13.63;4.50;;;;;;;10.20;74.23;101085.75;6252340;23;20361;-87
2023/04/11 08:11:48;;;;;;;13.13;4.55;;;;;;;10.06;76.33;101089.03;6219936;23;20008;-88
2023/04/11 08:14:13;;;;;;;14.63;4.93;;;;;;;10.43;75.21;101095.38;6239491;23;20414;-87
2023/04/11 08:16:39;;;;;;;18.23;5.07;;;;;;;10.80;74.69;101101.63;6239309;23;20000;-87
2023/04/11 08:19:04;;;;;;;14.00;5.38;;;;;;;11.44;72.25;101101.13;6240897;23;20015;-89
2023/04/11 08:21:30;;;;;;;15.30;4.45;;;;;;;12.00;67.86;101105.41;6239108;23;20084;-86
2023/04/11 08:23:55;;;;;;;16.88;4.38;;;;;;;12.09;67.40;101096.06;6238646;23;20015;-87
2023/04/11 08:26:21;;;;;;;9.50;3.90;;;;;;;12.39;66.66;101104.22;6234455;23;20691;-86
2023/04/11 08:28:46;;;;;;;13.50;4.60;;;;;;;13.12;63.42;101112.59;6240076;23;20078;-87
2023/04/11 08:31:11;;;;;;;10.82;3.33;;;;;;;12.78;58.96;101124.31;6241451;23;20004;-88
2023/04/11 08:33:38;;;;;;;11.43;3.58;;;;;;;11.83;60.88;101137.41;6240151;23;20335;-90
2023/04/11 08:36:04;;;;;;;14.82;3.95;;;;;;;11.35;65.84;101129.09;6241666;23;20000;-88
2023/04/11 08:38:29;;;;;;;11.23;3.47;;;;;;;11.32;67.04;101129.25;6239623;23;20015;-89
2023/04/11 08:40:55;;;;;;;9.43;3.22;;;;;;;11.34;65.73;101127.38;6239462;23;20035;-88
2023/04/11 08:43:20;;;;;;;11.25;3.78;;;;;;;11.42;64.17;101119.88;6256039;23;20012;-90
2023/04/11 08:45:46;;;;;;;10.32;3.10;;;;;;;11.44;65.11;101133.97;6259854;23;20004;-86
2023/04/11 08:48:11;;;;;;;12.65;3.50;;;;;;;11.11;63.27;101131.16;6262307;22;20012;-88
2023/04/11 08:50:40;;;;;;;9.38;3.25;;;;;;;10.75;65.86;101143.59;6247994;23;20040;-86
2023/04/11 08:53:07;;;;;;;10.05;3.15;;;;;;;10.94;67.31;101134.63;6211331;23;20104;-87
2023/04/11 08:55:32;;;;;;;11.75;3.60;;;;;;;11.91;62.13;101140.53;6242980;23;20000;-89
2023/04/11 08:57:58;;;;;;;11.52;3.33;;;;;;;13.02;60.41;101130.97;6241347;23;20026;-87
2023/04/11 09:00:27;;;;;;;13.23;3.58;;;;;;;13.00;58.61;101145.34;6240180;23;20083;-88
2023/04/11 09:02:55;;;;;;;12.80;3.15;;;;;;;12.53;59.01;101132.81;6214693;23;20012;-87
2023/04/11 09:05:27;;;;;;;11.98;3.58;;;;;;;12.11;59.91;101137.69;6239164;23;20397;-86
2023/04/11 09:07:53;;;;;;;10.47;3.73;;;;;;;11.94;60.09;101137.72;6239486;23;20134;-88
2023/04/11 09:10:20;;;;;;;13.95;3.20;;;;;;;13.38;59.31;101141.41;6239686;23;20003;-88
2023/04/11 09:12:45;;;;;;;10.18;3.45;;;;;;;15.16;53.94;101134.00;6235077;23;20016;-87
2023/04/11 09:15:22;;;;;;;9.95;3.15;;;;;;;14.72;55.36;101136.88;6238140;23;20520;-88
2023/04/11 09:17:48;;;;;;;9.07;3.00;;;;;;;15.56;50.39;101119.78;6234829;23;20018;-87
2023/04/11 09:20:28;;;;;;;10.30;3.13;;;;;;;15.89;48.86;101130.94;6208989;23;20067;-88
2023/04/11 09:22:55;;;;;;;9.85;3.05;;;;;;;16.69;47.75;101136.94;6236152;23;20004;-88
2023/04/11 09:25:22;;;;;;;10.50;3.05;;;;;;;17.77;44.73;101140.69;6236686;23;20004;-88
2023/04/11 09:27:48;;;;;;;6.95;2.50;;;;;;;17.64;43.38;101142.53;6236382;23;20008;-88
2023/04/11 09:30:25;;;;;;;10.75;3.03;;;;;;;15.97;47.61;101133.09;6213253;23;20682;-89
2023/04/11 09:32:52;;;;;;;9.75;2.50;;;;;;;14.17;49.51;101132.25;6238363;23;20492;-88
2023/04/11 09:35:21;;;;;;;8.95;2.55;;;;;;;13.17;52.02;101158.66;6239234;23;20008;-88
2023/04/11 09:37:55;;;;;;;9.70;3.63;;;;;;;13.02;54.28;101156.81;6240397;23;20012;-88
2023/04/11 09:40:21;;;;;;;;;;;;;;;13.26;56.10;101151.94;6237631;23;20706;-87
2023/04/11 09:42:48;;;;;;;8.82;3.05;;;;;;;13.63;53.78;101156.03;6236210;23;19907;-87
2023/04/11 09:45:16;;;;;;;8.65;3.08;;;;;;;14.51;51.64;101143.59;6240586;23;20454;-88
2023/04/11 09:47:42;;;;;;;8.98;2.92;;;;;;;14.93;49.56;101159.63;6238826;22;20043;-87
2023/04/11 09:50:08;;;;;;;9.15;2.28;;;;;;;14.64;46.87;101160.63;6243421;23;20000;-87
2023/04/11 09:52:34;;;;;;;8.82;2.78;;;;;;;15.30;45.36;101159.94;6242704;23;20039;-88
2023/04/11 09:55:01;;;;;;;7.40;2.67;;;;;;;15.69;45.72;101159.13;6245646;23;20032;-88
2023/04/11 09:57:29;;;;;;;7.57;2.15;;;;;;;15.32;44.40;101141.91;6250208;23;20011;-87
2023/04/11 09:59:55;;;;;;;6.53;2.47;;;;;;;15.72;44.02;101160.75;6264886;22;20311;-88
2023/04/11 10:02:20;;;;;;;6.15;2.40;;;;;;;17.13;41.51;101157.06;6264514;22;19999;-89
2023/04/11 10:04:46;;;;;;;7.75;2.33;;;;;;;18.07;40.43;101139.31;6265087;23;19988;-89
2023/04/11 10:07:13;;;;;;;6.57;1.92;;;;;;;19.50;37.81;101139.47;6255539;23;20015;-87
2023/04/11 10:09:41;;;;;;;7.57;1.92;;;;;;;18.64;36.02;101155.41;6222642;23;20023;-88
2023/04/11 10:12:06;;;;;;;6.90;1.92;;;;;;;17.04;38.41;101163.13;6222868;23;20070;-88
2023/04/11 10:14:37;;;;;;;7.65;2.28;;;;;;;17.00;40.53;101158.09;6246286;23;20016;-88
2023/04/11 10:17:21;;;;;;;5.15;2.25;;;;;;;18.47;40.17;101145.09;6218433;23;20015;-89
2023/04/11 10:19:47;;;;;;;;;;;;;;;20.16;38.33;101148.25;6246813;23;20008;-87
2023/04/11 10:22:41;;;;;;;5.70;1.80;;;;;;;19.67;36.11;101159.69;6245677;23;19907;-90
2023/04/11 10:25:21;;;;;;;6.80;2.10;;;;;;;19.96;33.93;101151.81;6244426;23;20031;-87
2023/04/11 10:27:52;;;;;;;6.65;1.88;;;;;;;20.41;32.24;101136.16;6241791;23;20006;-87
2023/04/11 10:30:18;;;;;;;4.05;1.65;;;;;;;21.06;30.66;101142.13;6215935;23;20034;-88
2023/04/11 10:33:08;;;;;;;5.57;2.20;;;;;;;21.17;33.41;101150.13;6243186;23;20000;-86
2023/04/11 10:35:33;;;;;;;7.10;1.77;;;;;;;21.70;29.75;101152.50;6247099;23;20000;-85
2023/04/11 10:37:59;;;;;;;5.07;1.98;;;;;;;21.58;28.96;101151.78;6249885;23;20012;-87
2023/04/11 10:40:24;;;;;;;5.35;2.10;;;;;;;21.89;29.54;101148.94;6247286;23;20004;-86
2023/04/11 10:42:50;;;;;;;5.20;1.90;;;;;;;22.10;28.84;101151.47;6248873;23;20015;-87
2023/04/11 10:45:25;;;;;;;5.35;1.70;;;;;;;22.11;28.48;101151.34;6227504;23;20000;-86
2023/04/11 10:47:51;;;;;;;9.07;2.30;;;;;;;21.99;28.40;101143.50;6247719;22;20331;-88
2023/04/11 10:50:22;;;;;;;6.50;2.10;;;;;;;22.41;28.05;101140.47;6245861;23;20015;-88
2023/04/11 10:52:47;;;;;;;5.68;2.13;;;;;;;22.40;26.30;101138.72;6247363;23;20008;-88
2023/04/11 10:55:16;;;;;;;5.00;1.77;;;;;;;23.20;27.24;101148.97;6246915;23;20016;-88
2023/04/11 10:58:07;;;;;;;5.50;1.65;;;;;;;23.66;27.66;101163.41;6242111;23;20004;-89
2023/04/11 11:00:51;;;;;;;6.15;1.65;;;;;;;23.30;26.58;101155.19;6243813;23;20026;-87
2023/04/11 11:03:24;;;;;;;4.45;1.75;;;;;;;23.05;26.79;101148.63;6213723;23;20085;-85
2023/04/11 11:05:59;;;;;;;;;;;;;;;24.42;25.96;101162.00;6215649;23;20004;-87
2023/04/11 11:08:29;;;;;;;5.82;1.50;;;;;;;23.08;25.40;101152.91;6241694;23;19911;-87
2023/04/11 11:11:02;;;;;;;4.80;1.35;;;;;;;22.70;26.32;101154.78;6239576;23;20065;-87
2023/04/11 11:13:39;;;;;;;7.30;3.28;;;;;;;22.02;27.11;101165.75;6242853;23;20008;-90
2023/04/11 11:16:06;;;;;;;7.15;2.30;;;;;;;22.00;26.88;101150.63;6248634;23;20000;-90